This is the latest recevied weather packets stored in our database for station/object SQ9RHX-11. If no packets are shown the sender has not sent any weather packets the latest 10 day(s).
| Time | Temp. | Humidity | Pressure | Rain* | Wind** | Luminosity | Snow |
|---|---|---|---|---|---|---|---|
| 1777444380 | 7.22° C | 42% | 1028.9 hPa | - | - | - | - |
| 1777442580 | 6.11° C | 46% | 1028.7 hPa | - | - | - | - |
| 1777440780 | 5.56° C | 50% | 1028.2 hPa | - | - | - | - |
| 1777438980 | 3.89° C | 54% | 1027.8 hPa | - | - | - | - |
| 1777437179 | 1.11° C | 59% | 1027.8 hPa | - | - | - | - |
| 1777435379 | 0° C | 61% | 1027.5 hPa | - | - | - | - |
| 1777433579 | -0.56° C | 62% | 1027.2 hPa | - | - | - | - |
| 1777431780 | -1.11° C | 62% | 1027 hPa | - | - | - | - |
| 1777429982 | -0.56° C | 60% | 1026.9 hPa | - | - | - | - |
| 1777428182 | 1.11° C | 59% | 1026.7 hPa | - | - | - | - |
| 1777426383 | 2.22° C | 59% | 1026.7 hPa | - | - | - | - |
| 1777424584 | 2.22° C | 61% | 1026.4 hPa | - | - | - | - |
| 1777422784 | 0° C | 64% | 1026.4 hPa | - | - | - | - |
| 1777420985 | -2.22° C | 63% | 1026.2 hPa | - | - | - | - |
| 1777419185 | -2.22° C | 63% | 1025.9 hPa | - | - | - | - |
| 1777417386 | -2.22° C | 61% | 1025.7 hPa | - | - | - | - |
| 1777415587 | -1.11° C | 58% | 1025.7 hPa | - | - | - | - |
| 1777413788 | -1.11° C | 56% | 1025.7 hPa | - | - | - | - |
| 1777411989 | 0° C | 53% | 1025.5 hPa | - | - | - | - |
| 1777410189 | 0.56° C | 48% | 1025.5 hPa | - | - | - | - |
| 1777408390 | 1.67° C | 46% | 1025.5 hPa | - | - | - | - |
| 1777406591 | 2.78° C | 41% | 1025.5 hPa | - | - | - | - |
| 1777404792 | 4.44° C | 38% | 1025.3 hPa | - | - | - | - |
| 1777402993 | 7.22° C | 35% | 1025.1 hPa | - | - | - | - |
| 1777401194 | 8.33° C | 33% | 1024.9 hPa | - | - | - | - |
* Rain since midnight (hover to see other rain measurements)
** Current wind speed in m/s (hover to see current wind gust speed)